Airfield :
LOGIN :

Register | Disclaimer

   EN    FR    IT 

 










Legend :    VFR   Marginal VFR   IFR   Intensive IFR   Very Intensive IFR
Visi :
Ceiling :
>= 8 km
>= 3000ft
5 to 8 km
1000 to 3000 ft
1500m to 5 km
500 to 1000 ft
800 to 1500m
200 to 500 ft
< 800m
< 200 ft
Symbols :   Thunderstorms  Fog  Heavy snow  Heavy precipitations  Wind > 20 kt
SIGMETs :     Misc.  Thunderstorms  Icing  Turbulence  Mountain Waves  Volcanic Ashes






- Airport Elevation : 11 ft
- IATA code : PVK


LGPZ - Aktion Lefkada Preveza

CURRENT METAR :
  • 091050Z 17010KT 9999 FEW020 BKN025 19/12 Q1010

EXPIRED METARs :
  • 091020Z 17011KT 9999 FEW020 SCT025 19/13 Q1011
  • 090950Z 16008KT 9999 FEW020 SCT025 19/13 Q1012 RMK FEW080 BLU
  • 090920Z 17008KT 9999 FEW020 SCT025 18/14 Q1012
  • 090850Z 16006KT 9999 DZ FEW015 BKN025 BKN080 16/13 Q1012 RMK FEW020 BLU
  • 090820Z 15005KT 9999 DZ FEW015 BKN025 BKN080 17/13 Q1013

TAF TAF LGPZ
Valid from the 09 at 06:00 until the 10 at 06:00 UTC


090500Z 0906/1006 12015KT 9999 FEW018 BKN025
PROB40
TEMPO 0906/1006 5000 RA SCT010 BKN020
PROB30
TEMPO 0912/1006 3000 TSRA SCT010 FEW018CB BKN020
TEMPO 0908/0918 16015G25KT
BECMG 0918/0920 22015KT



MET'MAP, your aeronautical weather chart ! - Copyright ORBIFLY December 2007 - Disclaimer

ORBIFLY MET'MAP TEAM :

Programming & Development : Alexandra Zaïnal
Concept & original design : Baudouin d'Aumeries
Assistance for programming : Marc-Olivier Méhu
Technical & hardware support : Manuel Goepfert

Contact : metmap@orbifly.com




SOURCES & CREDITS :

   NOAA